sensor_id;sensor_type;location;lat;lon;timestamp;temperature;humidity
19110;DHT22;9687;50.836;12.060;2022-08-04T00:01:32;26.90;54.50
19110;DHT22;9687;50.836;12.060;2022-08-04T00:04:03;26.90;54.40
19110;DHT22;9687;50.836;12.060;2022-08-04T00:06:46;26.90;53.80
19110;DHT22;9687;50.836;12.060;2022-08-04T00:09:23;26.90;53.70
19110;DHT22;9687;50.836;12.060;2022-08-04T00:12:00;26.90;53.90
19110;DHT22;9687;50.836;12.060;2022-08-04T00:14:37;26.90;53.70
19110;DHT22;9687;50.836;12.060;2022-08-04T00:17:10;26.80;53.80
19110;DHT22;9687;50.836;12.060;2022-08-04T00:19:40;26.80;53.90
19110;DHT22;9687;50.836;12.060;2022-08-04T00:22:18;26.80;53.80
19110;DHT22;9687;50.836;12.060;2022-08-04T00:24:52;26.80;53.60
19110;DHT22;9687;50.836;12.060;2022-08-04T00:27:24;26.80;53.20
19110;DHT22;9687;50.836;12.060;2022-08-04T00:29:52;26.70;53.10
19110;DHT22;9687;50.836;12.060;2022-08-04T00:32:25;26.60;53.30
19110;DHT22;9687;50.836;12.060;2022-08-04T00:34:53;26.60;53.50
19110;DHT22;9687;50.836;12.060;2022-08-04T00:37:24;26.50;53.60
19110;DHT22;9687;50.836;12.060;2022-08-04T00:39:55;26.50;54.10
19110;DHT22;9687;50.836;12.060;2022-08-04T00:42:34;26.40;54.40
19110;DHT22;9687;50.836;12.060;2022-08-04T00:45:20;26.40;54.80
19110;DHT22;9687;50.836;12.060;2022-08-04T00:48:03;26.40;55.10
19110;DHT22;9687;50.836;12.060;2022-08-04T00:50:43;26.40;55.30
19110;DHT22;9687;50.836;12.060;2022-08-04T00:53:16;26.30;55.50
19110;DHT22;9687;50.836;12.060;2022-08-04T00:56:07;26.30;55.70
19110;DHT22;9687;50.836;12.060;2022-08-04T00:58:49;26.20;55.90
19110;DHT22;9687;50.836;12.060;2022-08-04T01:01:43;26.20;55.90
19110;DHT22;9687;50.836;12.060;2022-08-04T01:04:19;26.20;56.20
19110;DHT22;9687;50.836;12.060;2022-08-04T01:07:08;26.20;56.30
19110;DHT22;9687;50.836;12.060;2022-08-04T01:09:45;26.20;56.50
19110;DHT22;9687;50.836;12.060;2022-08-04T01:12:35;26.10;56.40
19110;DHT22;9687;50.836;12.060;2022-08-04T01:15:17;26.10;56.30
19110;DHT22;9687;50.836;12.060;2022-08-04T01:18:08;26.00;56.10
19110;DHT22;9687;50.836;12.060;2022-08-04T01:21:18;26.00;56.00
19110;DHT22;9687;50.836;12.060;2022-08-04T01:24:08;26.00;55.80
19110;DHT22;9687;50.836;12.060;2022-08-04T01:26:52;25.90;56.20
19110;DHT22;9687;50.836;12.060;2022-08-04T01:29:23;25.90;56.30
19110;DHT22;9687;50.836;12.060;2022-08-04T01:32:01;25.90;56.40
19110;DHT22;9687;50.836;12.060;2022-08-04T01:34:46;25.80;56.40
19110;DHT22;9687;50.836;12.060;2022-08-04T01:37:36;25.80;56.40
19110;DHT22;9687;50.836;12.060;2022-08-04T01:40:27;25.80;56.60
19110;DHT22;9687;50.836;12.060;2022-08-04T01:43:15;25.80;56.40
19110;DHT22;9687;50.836;12.060;2022-08-04T01:46:04;25.80;56.50
19110;DHT22;9687;50.836;12.060;2022-08-04T01:48:53;25.70;56.50
19110;DHT22;9687;50.836;12.060;2022-08-04T01:51:42;25.70;56.50
19110;DHT22;9687;50.836;12.060;2022-08-04T01:54:11;25.70;56.50
19110;DHT22;9687;50.836;12.060;2022-08-04T01:56:43;25.70;56.60
19110;DHT22;9687;50.836;12.060;2022-08-04T01:59:16;25.60;56.70
19110;DHT22;9687;50.836;12.060;2022-08-04T02:01:45;25.60;56.90
19110;DHT22;9687;50.836;12.060;2022-08-04T02:04:13;25.60;57.10
19110;DHT22;9687;50.836;12.060;2022-08-04T02:06:51;25.60;57.10
19110;DHT22;9687;50.836;12.060;2022-08-04T02:09:22;25.60;57.10
19110;DHT22;9687;50.836;12.060;2022-08-04T02:12:01;25.60;57.10
19110;DHT22;9687;50.836;12.060;2022-08-04T02:14:37;25.60;57.10
19110;DHT22;9687;50.836;12.060;2022-08-04T02:17:14;25.60;57.10
19110;DHT22;9687;50.836;12.060;2022-08-04T02:20:00;25.60;57.20
19110;DHT22;9687;50.836;12.060;2022-08-04T02:22:32;25.60;57.40
19110;DHT22;9687;50.836;12.060;2022-08-04T02:25:05;25.60;57.40
19110;DHT22;9687;50.836;12.060;2022-08-04T02:27:45;25.50;57.50
19110;DHT22;9687;50.836;12.060;2022-08-04T02:30:16;25.60;57.50
19110;DHT22;9687;50.836;12.060;2022-08-04T02:32:48;25.50;57.50
19110;DHT22;9687;50.836;12.060;2022-08-04T02:35:24;25.50;57.60
19110;DHT22;9687;50.836;12.060;2022-08-04T02:37:59;25.50;57.70
19110;DHT22;9687;50.836;12.060;2022-08-04T02:40:29;25.50;57.80
19110;DHT22;9687;50.836;12.060;2022-08-04T02:42:57;25.50;57.80
19110;DHT22;9687;50.836;12.060;2022-08-04T02:45:30;25.50;57.90
19110;DHT22;9687;50.836;12.060;2022-08-04T02:48:00;25.50;58.10
19110;DHT22;9687;50.836;12.060;2022-08-04T02:50:33;25.40;57.60
19110;DHT22;9687;50.836;12.060;2022-08-04T02:53:02;25.40;58.20
19110;DHT22;9687;50.836;12.060;2022-08-04T02:55:31;25.40;58.20
19110;DHT22;9687;50.836;12.060;2022-08-04T02:58:01;25.40;58.10
19110;DHT22;9687;50.836;12.060;2022-08-04T03:00:31;25.40;58.00
19110;DHT22;9687;50.836;12.060;2022-08-04T03:03:15;25.40;57.90
19110;DHT22;9687;50.836;12.060;2022-08-04T03:06:00;25.40;58.60
19110;DHT22;9687;50.836;12.060;2022-08-04T03:08:50;25.30;57.60
19110;DHT22;9687;50.836;12.060;2022-08-04T03:15:04;25.30;57.80
19110;DHT22;9687;50.836;12.060;2022-08-04T03:18:07;25.20;58.00
19110;DHT22;9687;50.836;12.060;2022-08-04T03:30:19;24.60;59.20
19110;DHT22;9687;50.836;12.060;2022-08-04T03:45:44;23.90;60.90
19110;DHT22;9687;50.836;12.060;2022-08-04T03:48:41;23.90;61.20
19110;DHT22;9687;50.836;12.060;2022-08-04T03:51:20;24.00;62.00
19110;DHT22;9687;50.836;12.060;2022-08-04T03:57:33;24.10;62.10
19110;DHT22;9687;50.836;12.060;2022-08-04T04:00:06;24.10;62.00
19110;DHT22;9687;50.836;12.060;2022-08-04T04:02:54;24.20;61.60
19110;DHT22;9687;50.836;12.060;2022-08-04T04:05:48;24.20;61.60
19110;DHT22;9687;50.836;12.060;2022-08-04T04:08:36;24.20;61.60
19110;DHT22;9687;50.836;12.060;2022-08-04T04:11:50;24.20;61.60
19110;DHT22;9687;50.836;12.060;2022-08-04T04:14:48;24.20;60.90
19110;DHT22;9687;50.836;12.060;2022-08-04T04:17:38;24.20;60.40
19110;DHT22;9687;50.836;12.060;2022-08-04T04:20:25;24.20;60.20
19110;DHT22;9687;50.836;12.060;2022-08-04T04:32:20;24.20;60.60
19110;DHT22;9687;50.836;12.060;2022-08-04T04:35:06;24.30;60.90
19110;DHT22;9687;50.836;12.060;2022-08-04T04:37:55;24.30;61.10
19110;DHT22;9687;50.836;12.060;2022-08-04T04:40:47;24.40;61.30
19110;DHT22;9687;50.836;12.060;2022-08-04T04:43:36;24.40;61.40
19110;DHT22;9687;50.836;12.060;2022-08-04T04:46:12;24.50;61.80
19110;DHT22;9687;50.836;12.060;2022-08-04T04:49:00;24.50;61.80
19110;DHT22;9687;50.836;12.060;2022-08-04T04:51:40;24.50;61.90
19110;DHT22;9687;50.836;12.060;2022-08-04T04:54:17;24.60;61.70
19110;DHT22;9687;50.836;12.060;2022-08-04T04:56:52;24.50;61.70
19110;DHT22;9687;50.836;12.060;2022-08-04T04:59:27;24.60;62.00
19110;DHT22;9687;50.836;12.060;2022-08-04T05:02:32;24.60;62.00
19110;DHT22;9687;50.836;12.060;2022-08-04T05:05:20;24.60;62.20
19110;DHT22;9687;50.836;12.060;2022-08-04T05:11:40;24.60;62.80
19110;DHT22;9687;50.836;12.060;2022-08-04T05:14:17;24.60;63.00
19110;DHT22;9687;50.836;12.060;2022-08-04T05:16:53;24.70;63.20
19110;DHT22;9687;50.836;12.060;2022-08-04T05:19:27;24.70;63.30
19110;DHT22;9687;50.836;12.060;2022-08-04T05:22:02;24.70;63.50
19110;DHT22;9687;50.836;12.060;2022-08-04T05:24:35;24.70;63.60
19110;DHT22;9687;50.836;12.060;2022-08-04T05:27:10;24.70;63.80
19110;DHT22;9687;50.836;12.060;2022-08-04T05:29:48;24.70;64.10
19110;DHT22;9687;50.836;12.060;2022-08-04T05:32:22;24.80;64.30
19110;DHT22;9687;50.836;12.060;2022-08-04T05:34:54;24.80;63.90
19110;DHT22;9687;50.836;12.060;2022-08-04T05:37:24;24.90;64.10
19110;DHT22;9687;50.836;12.060;2022-08-04T05:39:57;24.90;64.10
19110;DHT22;9687;50.836;12.060;2022-08-04T05:42:26;24.90;64.10
19110;DHT22;9687;50.836;12.060;2022-08-04T05:44:55;24.90;64.20
19110;DHT22;9687;50.836;12.060;2022-08-04T05:47:25;24.90;64.50
19110;DHT22;9687;50.836;12.060;2022-08-04T05:49:54;24.90;64.40
19110;DHT22;9687;50.836;12.060;2022-08-04T05:52:23;25.00;64.50
19110;DHT22;9687;50.836;12.060;2022-08-04T05:54:52;25.00;64.70
19110;DHT22;9687;50.836;12.060;2022-08-04T05:57:20;25.10;63.90
19110;DHT22;9687;50.836;12.060;2022-08-04T05:59:49;25.20;63.70
19110;DHT22;9687;50.836;12.060;2022-08-04T06:02:18;25.20;63.50
19110;DHT22;9687;50.836;12.060;2022-08-04T06:04:49;25.30;63.30
19110;DHT22;9687;50.836;12.060;2022-08-04T06:07:17;25.40;63.00
19110;DHT22;9687;50.836;12.060;2022-08-04T06:09:45;25.50;63.20
19110;DHT22;9687;50.836;12.060;2022-08-04T06:12:16;25.60;62.70
19110;DHT22;9687;50.836;12.060;2022-08-04T06:14:46;25.60;62.90
19110;DHT22;9687;50.836;12.060;2022-08-04T06:17:19;25.70;63.00
19110;DHT22;9687;50.836;12.060;2022-08-04T06:19:51;25.80;62.50
19110;DHT22;9687;50.836;12.060;2022-08-04T06:22:22;25.80;62.10
19110;DHT22;9687;50.836;12.060;2022-08-04T06:24:51;25.90;62.30
19110;DHT22;9687;50.836;12.060;2022-08-04T06:27:22;26.00;62.40
19110;DHT22;9687;50.836;12.060;2022-08-04T06:29:50;26.00;62.10
19110;DHT22;9687;50.836;12.060;2022-08-04T06:32:19;26.10;61.60
19110;DHT22;9687;50.836;12.060;2022-08-04T06:34:56;26.20;61.00
19110;DHT22;9687;50.836;12.060;2022-08-04T06:37:25;26.30;61.20
19110;DHT22;9687;50.836;12.060;2022-08-04T06:39:54;26.40;61.00
19110;DHT22;9687;50.836;12.060;2022-08-04T06:42:38;26.40;59.90
19110;DHT22;9687;50.836;12.060;2022-08-04T06:45:08;26.60;59.90
19110;DHT22;9687;50.836;12.060;2022-08-04T06:47:51;26.60;59.70
19110;DHT22;9687;50.836;12.060;2022-08-04T06:50:22;26.70;58.80
19110;DHT22;9687;50.836;12.060;2022-08-04T06:52:50;26.80;58.40
19110;DHT22;9687;50.836;12.060;2022-08-04T06:55:19;26.90;58.10
19110;DHT22;9687;50.836;12.060;2022-08-04T06:57:48;27.00;58.10
19110;DHT22;9687;50.836;12.060;2022-08-04T07:00:19;27.10;58.00
19110;DHT22;9687;50.836;12.060;2022-08-04T07:02:50;27.10;57.90
19110;DHT22;9687;50.836;12.060;2022-08-04T07:05:19;27.20;58.00
19110;DHT22;9687;50.836;12.060;2022-08-04T07:07:49;27.30;58.00
19110;DHT22;9687;50.836;12.060;2022-08-04T07:10:18;27.50;58.10
19110;DHT22;9687;50.836;12.060;2022-08-04T07:12:47;27.60;57.60
19110;DHT22;9687;50.836;12.060;2022-08-04T07:15:16;27.70;57.30
19110;DHT22;9687;50.836;12.060;2022-08-04T07:17:45;27.80;57.00
19110;DHT22;9687;50.836;12.060;2022-08-04T07:20:13;27.90;56.60
19110;DHT22;9687;50.836;12.060;2022-08-04T07:22:42;28.00;56.10
19110;DHT22;9687;50.836;12.060;2022-08-04T07:25:14;28.10;56.00
19110;DHT22;9687;50.836;12.060;2022-08-04T07:27:43;28.30;55.60
19110;DHT22;9687;50.836;12.060;2022-08-04T07:30:15;28.50;54.90
19110;DHT22;9687;50.836;12.060;2022-08-04T07:32:47;28.60;54.30
19110;DHT22;9687;50.836;12.060;2022-08-04T07:35:15;28.70;53.60
19110;DHT22;9687;50.836;12.060;2022-08-04T07:37:44;28.90;53.10
19110;DHT22;9687;50.836;12.060;2022-08-04T07:40:13;29.00;52.60
19110;DHT22;9687;50.836;12.060;2022-08-04T07:42:40;29.20;52.50
19110;DHT22;9687;50.836;12.060;2022-08-04T07:45:16;29.50;52.10
19110;DHT22;9687;50.836;12.060;2022-08-04T07:48:02;29.90;51.30
19110;DHT22;9687;50.836;12.060;2022-08-04T07:50:48;30.20;51.50
19110;DHT22;9687;50.836;12.060;2022-08-04T07:54:13;30.40;49.80
19110;DHT22;9687;50.836;12.060;2022-08-04T19:58:36;34.30;41.20
19110;DHT22;9687;50.836;12.060;2022-08-04T20:01:05;34.20;42.60
19110;DHT22;9687;50.836;12.060;2022-08-04T20:03:32;34.10;42.80
19110;DHT22;9687;50.836;12.060;2022-08-04T20:06:00;34.10;43.10
19110;DHT22;9687;50.836;12.060;2022-08-04T20:08:27;33.90;43.30
19110;DHT22;9687;50.836;12.060;2022-08-04T20:10:55;33.80;43.30
19110;DHT22;9687;50.836;12.060;2022-08-04T20:13:24;33.80;43.40
19110;DHT22;9687;50.836;12.060;2022-08-04T20:15:52;33.60;43.30
19110;DHT22;9687;50.836;12.060;2022-08-04T20:18:19;33.60;43.30
19110;DHT22;9687;50.836;12.060;2022-08-04T20:20:47;33.40;43.10
19110;DHT22;9687;50.836;12.060;2022-08-04T20:23:15;33.30;43.10
19110;DHT22;9687;50.836;12.060;2022-08-04T20:25:42;33.30;43.10
19110;DHT22;9687;50.836;12.060;2022-08-04T20:28:10;33.20;43.20
19110;DHT22;9687;50.836;12.060;2022-08-04T20:30:39;33.10;43.60
19110;DHT22;9687;50.836;12.060;2022-08-04T20:33:07;33.00;44.00
19110;DHT22;9687;50.836;12.060;2022-08-04T20:35:35;32.90;44.70
19110;DHT22;9687;50.836;12.060;2022-08-04T20:38:02;32.80;45.20
19110;DHT22;9687;50.836;12.060;2022-08-04T20:40:30;32.70;45.40
19110;DHT22;9687;50.836;12.060;2022-08-04T20:42:58;32.60;45.60
19110;DHT22;9687;50.836;12.060;2022-08-04T20:45:26;32.50;45.80
19110;DHT22;9687;50.836;12.060;2022-08-04T20:47:55;32.50;46.10
19110;DHT22;9687;50.836;12.060;2022-08-04T20:50:22;32.40;46.00
19110;DHT22;9687;50.836;12.060;2022-08-04T20:52:50;32.30;46.30
19110;DHT22;9687;50.836;12.060;2022-08-04T20:55:17;32.30;46.00
19110;DHT22;9687;50.836;12.060;2022-08-04T20:57:45;32.20;45.70
19110;DHT22;9687;50.836;12.060;2022-08-04T21:00:13;32.10;45.80
19110;DHT22;9687;50.836;12.060;2022-08-04T21:02:41;32.10;45.30
19110;DHT22;9687;50.836;12.060;2022-08-04T21:05:10;32.10;44.90
19110;DHT22;9687;50.836;12.060;2022-08-04T21:07:38;32.00;44.90
19110;DHT22;9687;50.836;12.060;2022-08-04T21:10:06;32.00;44.90
19110;DHT22;9687;50.836;12.060;2022-08-04T21:12:33;31.90;44.80
19110;DHT22;9687;50.836;12.060;2022-08-04T21:15:01;31.90;44.70
19110;DHT22;9687;50.836;12.060;2022-08-04T21:17:29;31.90;44.80
19110;DHT22;9687;50.836;12.060;2022-08-04T21:19:56;31.80;44.90
19110;DHT22;9687;50.836;12.060;2022-08-04T21:22:25;31.70;44.70
19110;DHT22;9687;50.836;12.060;2022-08-04T21:24:53;31.60;44.80
19110;DHT22;9687;50.836;12.060;2022-08-04T21:27:20;31.50;44.90
19110;DHT22;9687;50.836;12.060;2022-08-04T21:29:48;31.40;45.00
19110;DHT22;9687;50.836;12.060;2022-08-04T21:32:15;31.40;45.30
19110;DHT22;9687;50.836;12.060;2022-08-04T21:34:43;31.30;45.20
19110;DHT22;9687;50.836;12.060;2022-08-04T21:37:10;31.30;45.10
19110;DHT22;9687;50.836;12.060;2022-08-04T21:39:41;31.30;45.20
19110;DHT22;9687;50.836;12.060;2022-08-04T21:42:08;31.20;45.10
19110;DHT22;9687;50.836;12.060;2022-08-04T21:45:04;31.10;45.30
19110;DHT22;9687;50.836;12.060;2022-08-04T21:47:51;31.10;45.70
19110;DHT22;9687;50.836;12.060;2022-08-04T21:53:56;31.00;45.40
19110;DHT22;9687;50.836;12.060;2022-08-04T21:56:40;31.00;45.60
19110;DHT22;9687;50.836;12.060;2022-08-04T21:59:08;31.00;45.60
19110;DHT22;9687;50.836;12.060;2022-08-04T22:01:35;31.00;45.60
19110;DHT22;9687;50.836;12.060;2022-08-04T22:04:03;30.90;45.60
19110;DHT22;9687;50.836;12.060;2022-08-04T22:06:31;30.90;45.80
19110;DHT22;9687;50.836;12.060;2022-08-04T22:08:58;30.90;45.70
19110;DHT22;9687;50.836;12.060;2022-08-04T22:11:28;30.90;45.60
19110;DHT22;9687;50.836;12.060;2022-08-04T22:13:59;30.80;45.70
19110;DHT22;9687;50.836;12.060;2022-08-04T22:16:26;30.90;45.70
19110;DHT22;9687;50.836;12.060;2022-08-04T22:18:55;30.80;45.70
19110;DHT22;9687;50.836;12.060;2022-08-04T22:21:23;30.80;45.60
19110;DHT22;9687;50.836;12.060;2022-08-04T22:23:51;30.70;45.50
19110;DHT22;9687;50.836;12.060;2022-08-04T22:26:21;30.70;45.40
19110;DHT22;9687;50.836;12.060;2022-08-04T22:28:50;30.60;45.40
19110;DHT22;9687;50.836;12.060;2022-08-04T22:31:19;30.60;45.30
19110;DHT22;9687;50.836;12.060;2022-08-04T22:33:48;30.50;45.40
19110;DHT22;9687;50.836;12.060;2022-08-04T22:36:16;30.50;45.50
19110;DHT22;9687;50.836;12.060;2022-08-04T22:38:45;30.50;45.50
19110;DHT22;9687;50.836;12.060;2022-08-04T22:41:17;30.30;45.10
19110;DHT22;9687;50.836;12.060;2022-08-04T22:43:45;30.20;45.00
19110;DHT22;9687;50.836;12.060;2022-08-04T22:46:22;30.20;45.60
19110;DHT22;9687;50.836;12.060;2022-08-04T22:48:50;30.20;45.60
19110;DHT22;9687;50.836;12.060;2022-08-04T22:51:19;30.10;45.50
19110;DHT22;9687;50.836;12.060;2022-08-04T22:53:48;30.00;45.60
19110;DHT22;9687;50.836;12.060;2022-08-04T22:56:17;30.00;45.70
19110;DHT22;9687;50.836;12.060;2022-08-04T22:58:46;30.00;45.70
19110;DHT22;9687;50.836;12.060;2022-08-04T23:01:15;29.90;45.40
19110;DHT22;9687;50.836;12.060;2022-08-04T23:03:44;29.90;45.20
19110;DHT22;9687;50.836;12.060;2022-08-04T23:06:12;29.90;45.30
19110;DHT22;9687;50.836;12.060;2022-08-04T23:08:39;29.90;45.30
19110;DHT22;9687;50.836;12.060;2022-08-04T23:11:08;29.90;45.50
19110;DHT22;9687;50.836;12.060;2022-08-04T23:13:36;29.90;45.20
19110;DHT22;9687;50.836;12.060;2022-08-04T23:16:04;29.80;45.20
19110;DHT22;9687;50.836;12.060;2022-08-04T23:18:32;29.80;44.90
19110;DHT22;9687;50.836;12.060;2022-08-04T23:21:04;29.80;44.90
19110;DHT22;9687;50.836;12.060;2022-08-04T23:23:32;29.70;44.30
19110;DHT22;9687;50.836;12.060;2022-08-04T23:26:00;29.70;43.90
19110;DHT22;9687;50.836;12.060;2022-08-04T23:28:28;29.60;43.90
19110;DHT22;9687;50.836;12.060;2022-08-04T23:30:55;29.60;44.00
19110;DHT22;9687;50.836;12.060;2022-08-04T23:33:23;29.60;43.60
19110;DHT22;9687;50.836;12.060;2022-08-04T23:35:51;29.60;43.40
19110;DHT22;9687;50.836;12.060;2022-08-04T23:38:20;29.60;42.70
19110;DHT22;9687;50.836;12.060;2022-08-04T23:40:49;29.60;43.30
19110;DHT22;9687;50.836;12.060;2022-08-04T23:43:16;29.60;42.80
19110;DHT22;9687;50.836;12.060;2022-08-04T23:45:44;29.60;43.00
19110;DHT22;9687;50.836;12.060;2022-08-04T23:48:12;29.60;42.80
19110;DHT22;9687;50.836;12.060;2022-08-04T23:50:40;29.60;42.70
19110;DHT22;9687;50.836;12.060;2022-08-04T23:53:07;29.70;42.70
19110;DHT22;9687;50.836;12.060;2022-08-04T23:55:36;29.70;42.50
19110;DHT22;9687;50.836;12.060;2022-08-04T23:58:03;29.60;42.10
